• UTC

LHBC 230545Z 18001KT CAVOK 15/10 Q1015        

LHBP 230830Z VRB03KT CAVOK 23/12 Q1015 NOSIG        

LHDC 230815Z 05004KT CAVOK 21/11 Q1015 NOSIG        

LHKE 230815Z 11004KT CAVOK 22/11 Q1015 NOSIG RMK BLU        

LHPA 230815Z 25004KT CAVOK 22/13 Q1015 NOSIG RMK BLU        

LHPP 230815Z 30007KT CAVOK 19/08 Q1017        

LHPR 230815Z 30009KT 260V350 CAVOK 23/14 Q1016 RMK BLU        

LHSM 230815Z 27003KT 9999 FEW040 21/13 Q1015 NOSIG        

LHSN 230815Z 13002KT CAVOK 22/11 Q1015 NOSIG RMK BLU        

LHUD 230815Z 35003KT CAVOK 24/13 Q1016